4XCXR LLHZ-LLHA
Flight info
| Callsign | 4XCXR |
|---|---|
| Flight time | 0h 17m |
| Altitude | 1200 |
| Route | BAZRA DEROR SHARO HADRA FRDIS BOREN HOTRM DAROM GALIM |
| Aircraft | DA42/M-VD/A |
Departure
| Time | 2026-05-07 19:41 |
|---|---|
| Airport | Herzliya Airport (LLHZ) |
Arrival
| Time | 2026-05-07 19:58 |
|---|---|
| Airport | Uri Michaeli Haifa International Airport (LLHA) |
| Time | Latitude | Longitude | Altitude | Speed | Heading |
|---|---|---|---|---|---|
| 2026-05-07 19:23 | 32.17961 | 34.83868 | 122 ft | 0 kts | 200° |
| 2026-05-07 19:30 | 32.17951 | 34.83869 | 120 ft | 0 kts | 152° |
| 2026-05-07 19:30 | 32.17935 | 34.83878 | 122 ft | 8 kts | 175° |
| 2026-05-07 19:31 | 32.17913 | 34.83857 | 122 ft | 1 kts | 284° |
| 2026-05-07 19:31 | 32.17995 | 34.83564 | 107 ft | 72 kts | 289° |
| 2026-05-07 19:31 | 32.18206 | 34.82882 | 217 ft | 98 kts | 298° |
| 2026-05-07 19:31 | 32.18833 | 34.82763 | 308 ft | 115 kts | 19° |
| 2026-05-07 19:32 | 32.19344 | 34.83429 | 573 ft | 126 kts | 87° |
| 2026-05-07 19:32 | 32.19043 | 34.84460 | 501 ft | 124 kts | 121° |
| 2026-05-07 19:32 | 32.18489 | 34.84979 | 374 ft | 100 kts | 159° |
| 2026-05-07 19:32 | 32.17802 | 34.84800 | 415 ft | 116 kts | 240° |
| 2026-05-07 19:33 | 32.17858 | 34.84028 | 183 ft | 90 kts | 296° |
| 2026-05-07 19:33 | 32.18010 | 34.83511 | 105 ft | 22 kts | 287° |
| 2026-05-07 19:33 | 32.18054 | 34.83374 | 101 ft | 12 kts | 282° |
| 2026-05-07 19:33 | 32.18036 | 34.83332 | 102 ft | 0 kts | 153° |
| 2026-05-07 19:34 | 32.18033 | 34.83334 | 102 ft | 0 kts | 136° |
| 2026-05-07 19:34 | 32.18033 | 34.83335 | 102 ft | 0 kts | 133° |
| 2026-05-07 19:34 | 32.18012 | 34.83398 | 104 ft | 11 kts | 109° |
| 2026-05-07 19:34 | 32.18008 | 34.83412 | 104 ft | 0 kts | 109° |
| 2026-05-07 19:35 | 32.18005 | 34.83422 | 105 ft | 9 kts | 108° |
| 2026-05-07 19:35 | 32.17978 | 34.83512 | 107 ft | 11 kts | 110° |
| 2026-05-07 19:35 | 32.17959 | 34.83577 | 108 ft | 0 kts | 108° |
| 2026-05-07 19:36 | 32.17961 | 34.83588 | 109 ft | 7 kts | 47° |
| 2026-05-07 19:37 | 32.17971 | 34.83659 | 113 ft | 12 kts | 110° |
| 2026-05-07 19:37 | 32.17968 | 34.83764 | 117 ft | 12 kts | 87° |
| 2026-05-07 19:37 | 32.17954 | 34.83825 | 122 ft | 5 kts | 109° |
| 2026-05-07 19:37 | 32.17966 | 34.83848 | 120 ft | 3 kts | 41° |
| 2026-05-07 19:38 | 32.17964 | 34.83862 | 118 ft | 0 kts | 149° |
| 2026-05-07 19:39 | 32.17962 | 34.83863 | 122 ft | 2 kts | 169° |
| 2026-05-07 19:39 | 32.17945 | 34.83875 | 119 ft | 3 kts | 145° |
| 2026-05-07 19:39 | 32.17944 | 34.83876 | 119 ft | 0 kts | 150° |
| 2026-05-07 19:40 | 32.17943 | 34.83877 | 120 ft | 5 kts | 156° |
| 2026-05-07 19:40 | 32.17920 | 34.83828 | 120 ft | 20 kts | 288° |
| 2026-05-07 19:40 | 32.18046 | 34.83405 | 110 ft | 81 kts | 297° |
| 2026-05-07 19:41 | 32.18372 | 34.82787 | 238 ft | 96 kts | 354° |
| 2026-05-07 19:41 | 32.19065 | 34.83069 | 402 ft | 112 kts | 45° |
| 2026-05-07 19:41 | 32.19211 | 34.84012 | 569 ft | 137 kts | 100° |
| 2026-05-07 19:41 | 32.18961 | 34.85160 | 741 ft | 142 kts | 95° |
| 2026-05-07 19:42 | 32.18943 | 34.86340 | 809 ft | 155 kts | 87° |
| 2026-05-07 19:42 | 32.19007 | 34.87686 | 719 ft | 168 kts | 84° |
| 2026-05-07 19:42 | 32.19606 | 34.88596 | 837 ft | 160 kts | 4° |
| 2026-05-07 19:42 | 32.20765 | 34.88504 | 737 ft | 168 kts | 355° |
| 2026-05-07 19:43 | 32.21887 | 34.88521 | 844 ft | 166 kts | 4° |
| 2026-05-07 19:43 | 32.23070 | 34.88649 | 802 ft | 171 kts | 6° |
| 2026-05-07 19:43 | 32.24254 | 34.88847 | 794 ft | 173 kts | 12° |
| 2026-05-07 19:43 | 32.25435 | 34.89123 | 773 ft | 173 kts | 8° |
| 2026-05-07 19:44 | 32.26626 | 34.89320 | 832 ft | 168 kts | 9° |
| 2026-05-07 19:44 | 32.27748 | 34.89464 | 1025 ft | 161 kts | 6° |
| 2026-05-07 19:44 | 32.28885 | 34.89659 | 935 ft | 173 kts | 8° |
| 2026-05-07 19:44 | 32.30080 | 34.89912 | 987 ft | 169 kts | 12° |
| 2026-05-07 19:45 | 32.31213 | 34.90159 | 1127 ft | 165 kts | 9° |
| 2026-05-07 19:45 | 32.32379 | 34.90427 | 1022 ft | 176 kts | 10° |
| 2026-05-07 19:45 | 32.33590 | 34.90661 | 896 ft | 180 kts | 8° |
| 2026-05-07 19:45 | 32.34807 | 34.90855 | 927 ft | 175 kts | 5° |
| 2026-05-07 19:46 | 32.36037 | 34.90933 | 798 ft | 179 kts | 1° |
| 2026-05-07 19:46 | 32.37257 | 34.90927 | 844 ft | 172 kts | 358° |
| 2026-05-07 19:46 | 32.38461 | 34.90860 | 855 ft | 173 kts | 356° |
| 2026-05-07 19:46 | 32.39652 | 34.90747 | 914 ft | 172 kts | 354° |
| 2026-05-07 19:47 | 32.40867 | 34.90729 | 875 ft | 175 kts | 4° |
| 2026-05-07 19:47 | 32.42067 | 34.90866 | 901 ft | 173 kts | 7° |
| 2026-05-07 19:47 | 32.43220 | 34.91139 | 1174 ft | 160 kts | 15° |
| 2026-05-07 19:47 | 32.44281 | 34.91479 | 1405 ft | 158 kts | 13° |
| 2026-05-07 19:48 | 32.45368 | 34.91763 | 1454 ft | 164 kts | 12° |
| 2026-05-07 19:48 | 32.46470 | 34.92149 | 1540 ft | 166 kts | 28° |
| 2026-05-07 19:48 | 32.47428 | 34.92891 | 1587 ft | 169 kts | 32° |
| 2026-05-07 19:48 | 32.48462 | 34.93594 | 1548 ft | 173 kts | 19° |
| 2026-05-07 19:49 | 32.49623 | 34.93880 | 1595 ft | 172 kts | 9° |
| 2026-05-07 19:49 | 32.50795 | 34.94097 | 1640 ft | 170 kts | 10° |
| 2026-05-07 19:49 | 32.51968 | 34.94323 | 1676 ft | 170 kts | 6° |
| 2026-05-07 19:49 | 32.53161 | 34.94438 | 1704 ft | 169 kts | 3° |
| 2026-05-07 19:50 | 32.54316 | 34.94516 | 1733 ft | 166 kts | 5° |
| 2026-05-07 19:50 | 32.55421 | 34.94781 | 1870 ft | 159 kts | 14° |
| 2026-05-07 19:50 | 32.56474 | 34.95105 | 2001 ft | 161 kts | 12° |
| 2026-05-07 19:50 | 32.57644 | 34.95324 | 1833 ft | 175 kts | 7° |
| 2026-05-07 19:51 | 32.58865 | 34.95475 | 1831 ft | 178 kts | 3° |
| 2026-05-07 19:51 | 32.60100 | 34.95522 | 1763 ft | 179 kts | 2° |
| 2026-05-07 19:51 | 32.61309 | 34.95577 | 1923 ft | 170 kts | 2° |
| 2026-05-07 19:51 | 32.62550 | 34.95572 | 1742 ft | 184 kts | 360° |
| 2026-05-07 19:52 | 32.63822 | 34.95561 | 1780 ft | 181 kts | 0° |
| 2026-05-07 19:52 | 32.65079 | 34.95580 | 1749 ft | 181 kts | 1° |
| 2026-05-07 19:52 | 32.66315 | 34.95664 | 1835 ft | 177 kts | 11° |
| 2026-05-07 19:52 | 32.67523 | 34.95865 | 1905 ft | 175 kts | 5° |
| 2026-05-07 19:53 | 32.68750 | 34.95734 | 1812 ft | 181 kts | 348° |
| 2026-05-07 19:53 | 32.69978 | 34.95351 | 1772 ft | 183 kts | 347° |
| 2026-05-07 19:53 | 32.71198 | 34.95038 | 1710 ft | 184 kts | 353° |
| 2026-05-07 19:53 | 32.72475 | 34.94919 | 1630 ft | 187 kts | 359° |
| 2026-05-07 19:54 | 32.73780 | 34.95001 | 1568 ft | 187 kts | 6° |
| 2026-05-07 19:54 | 32.75062 | 34.95137 | 1607 ft | 181 kts | 3° |
| 2026-05-07 19:54 | 32.76333 | 34.95190 | 1516 ft | 185 kts | 2° |
| 2026-05-07 19:54 | 32.77618 | 34.95220 | 1407 ft | 186 kts | 359° |
| 2026-05-07 19:55 | 32.78867 | 34.95297 | 1545 ft | 172 kts | 7° |
| 2026-05-07 19:55 | 32.80081 | 34.95426 | 1389 ft | 179 kts | 2° |
| 2026-05-07 19:55 | 32.81275 | 34.95494 | 1603 ft | 169 kts | 5° |
| 2026-05-07 19:55 | 32.82434 | 34.95921 | 1401 ft | 187 kts | 36° |
| 2026-05-07 19:56 | 32.83184 | 34.97111 | 1608 ft | 180 kts | 66° |
| 2026-05-07 19:56 | 32.83538 | 34.98558 | 1693 ft | 185 kts | 78° |
| 2026-05-07 19:56 | 32.83503 | 35.00147 | 1251 ft | 202 kts | 94° |
| 2026-05-07 19:56 | 32.83285 | 35.01799 | 1029 ft | 201 kts | 101° |
| 2026-05-07 19:57 | 32.82881 | 35.03353 | 962 ft | 194 kts | 111° |
| 2026-05-07 19:57 | 32.82113 | 35.04647 | 902 ft | 193 kts | 132° |
| 2026-05-07 19:57 | 32.81143 | 35.05545 | 967 ft | 145 kts | 149° |
| 2026-05-07 19:57 | 32.80347 | 35.05905 | 984 ft | 109 kts | 185° |
| 2026-05-07 19:58 | 32.79833 | 35.05404 | 862 ft | 101 kts | 258° |
| 2026-05-07 19:58 | 32.80068 | 35.04720 | 345 ft | 96 kts | 338° |
| 2026-05-07 19:58 | 32.80649 | 35.04536 | 20 ft | 62 kts | 338° |
| 2026-05-07 19:58 | 32.80821 | 35.04455 | 21 ft | 6 kts | 343° |
| 2026-05-07 19:59 | 32.80851 | 35.04444 | 22 ft | 4 kts | 343° |
| 2026-05-07 19:59 | 32.80868 | 35.04438 | 22 ft | 3 kts | 342° |
| 2026-05-07 19:59 | 32.80938 | 35.04411 | 23 ft | 13 kts | 341° |
| 2026-05-07 19:59 | 32.81023 | 35.04375 | 21 ft | 14 kts | 340° |
| 2026-05-07 20:00 | 32.81125 | 35.04331 | 21 ft | 17 kts | 340° |
| 2026-05-07 20:00 | 32.81236 | 35.04282 | 23 ft | 16 kts | 340° |
| 2026-05-07 20:00 | 32.81325 | 35.04244 | 24 ft | 13 kts | 340° |
| 2026-05-07 20:00 | 32.81410 | 35.04207 | 24 ft | 13 kts | 340° |
| 2026-05-07 20:01 | 32.81469 | 35.04224 | 25 ft | 10 kts | 69° |
| 2026-05-07 20:01 | 32.81485 | 35.04275 | 24 ft | 0 kts | 71° |
| 2026-05-07 20:02 | 32.81497 | 35.04306 | 23 ft | 5 kts | 30° |
| 2026-05-07 20:02 | 32.81525 | 35.04342 | 22 ft | 9 kts | 70° |
| 2026-05-07 20:02 | 32.81537 | 35.04353 | 22 ft | 2 kts | 349° |
| 2026-05-07 20:02 | 32.81553 | 35.04346 | 22 ft | 0 kts | 339° |
| 2026-05-07 20:03 | 32.81563 | 35.04352 | 22 ft | 5 kts | 70° |
| 2026-05-07 20:03 | 32.81547 | 35.04367 | 22 ft | 0 kts | 188° |
| 2026-05-07 20:03 | 32.81541 | 35.04361 | 22 ft | 0 kts | 244° |